Time;durP1;ratioP1;P1;durP2;ratioP2;P2;SDS_P1;SDS_P2;PMS_P1;PMS_P2;Temp;Humidity;BMP_temperature;BMP_pressure;BME280_temperature;BME280_humidity;BME280_pressure;Samples;Min_cycle;Max_cycle;Signal;HPM_P1;HPM_P2
2024/01/01 00:01:55;;;;;;;12.38;6.22;;;;;;;6.67;100.00;97904.19;4997929;28;20057;-68
2024/01/01 00:04:24;;;;;;;12.68;5.70;;;;;;;6.67;100.00;97904.19;4990389;28;20065;-68
2024/01/01 00:06:51;;;;;;;15.52;5.88;;;;;;;6.66;100.00;97913.75;5001583;28;20060;-69
2024/01/01 00:09:17;;;;;;;11.20;5.20;;;;;;;6.64;100.00;97908.66;4997129;28;20478;-69
2024/01/01 00:11:44;;;;;;;12.43;5.28;;;;;;;6.70;100.00;97910.00;5003594;28;20042;-66
2024/01/01 00:14:12;;;;;;;10.35;5.28;;;;;;;6.69;100.00;97915.31;5005950;28;20046;-66
2024/01/01 00:16:39;;;;;;;10.05;4.55;;;;;;;6.71;100.00;97918.63;4990001;28;20057;-67
2024/01/01 00:19:06;;;;;;;10.00;4.63;;;;;;;6.69;100.00;97916.13;4996601;28;20506;-67
2024/01/01 00:21:32;;;;;;;11.57;5.28;;;;;;;6.70;100.00;97924.78;5005819;28;20050;-67
2024/01/01 00:23:59;;;;;;;9.60;4.45;;;;;;;6.68;100.00;97918.88;4996741;28;20495;-67
2024/01/01 00:26:26;;;;;;;12.02;5.68;;;;;;;6.65;100.00;97930.28;5003686;28;20057;-67
2024/01/01 00:28:52;;;;;;;12.18;6.20;;;;;;;6.63;100.00;97934.75;5000747;28;20049;-67
2024/01/01 00:31:19;;;;;;;10.82;4.80;;;;;;;6.69;100.00;97947.34;5004108;28;20079;-68
2024/01/01 00:33:46;;;;;;;11.88;4.95;;;;;;;6.61;100.00;97934.03;5008572;28;20046;-67
2024/01/01 00:36:12;;;;;;;10.30;4.55;;;;;;;6.67;100.00;97943.19;5015445;28;20049;-68
2024/01/01 00:38:39;;;;;;;11.88;5.35;;;;;;;6.67;100.00;97940.59;5005337;28;20053;-68
2024/01/01 00:41:06;;;;;;;10.43;4.97;;;;;;;6.62;100.00;97941.72;4997650;28;20053;-68
2024/01/01 00:43:33;;;;;;;13.27;5.47;;;;;;;6.64;100.00;97945.06;5007852;28;20107;-68
2024/01/01 00:46:00;;;;;;;9.70;4.82;;;;;;;6.59;100.00;97951.50;4999906;28;20146;-69
2024/01/01 00:48:27;;;;;;;11.13;4.88;;;;;;;6.58;100.00;97955.84;5002413;28;20058;-68
2024/01/01 00:50:54;;;;;;;9.80;4.80;;;;;;;6.55;100.00;97950.88;5007551;28;20053;-68
2024/01/01 00:53:20;;;;;;;10.75;4.90;;;;;;;6.57;100.00;97954.19;5001772;28;20061;-68
2024/01/01 00:55:47;;;;;;;11.15;4.75;;;;;;;6.54;100.00;97957.00;5003899;28;20368;-68
2024/01/01 00:58:14;;;;;;;10.63;4.25;;;;;;;6.56;100.00;97962.09;5005974;28;20391;-68
2024/01/01 01:00:41;;;;;;;9.20;3.63;;;;;;;6.57;100.00;97953.34;4998599;28;20073;-68
2024/01/01 01:03:07;;;;;;;9.05;4.18;;;;;;;6.53;100.00;97967.50;4993612;28;20050;-68
2024/01/01 01:05:34;;;;;;;12.27;4.95;;;;;;;6.44;100.00;97961.94;5008839;28;20054;-68
2024/01/01 01:08:01;;;;;;;9.52;4.20;;;;;;;6.49;100.00;97976.44;4995453;28;20408;-68
2024/01/01 01:10:28;;;;;;;9.82;3.72;;;;;;;6.50;100.00;97976.34;5006790;28;20062;-68
2024/01/01 01:12:55;;;;;;;9.23;3.65;;;;;;;6.41;100.00;97980.34;4993489;28;20500;-67
2024/01/01 01:15:25;;;;;;;9.68;3.25;;;;;;;6.43;100.00;97975.06;5005041;28;20050;-67
2024/01/01 01:17:52;;;;;;;8.25;3.17;;;;;;;6.37;100.00;97970.25;4997010;28;20046;-67
2024/01/01 01:20:19;;;;;;;7.82;3.15;;;;;;;6.44;100.00;97980.13;5007913;28;20054;-67
2024/01/01 01:22:46;;;;;;;7.15;2.80;;;;;;;6.41;100.00;97975.16;5003769;28;20152;-67
2024/01/01 01:25:13;;;;;;;8.50;3.03;;;;;;;6.39;100.00;97982.22;5004616;28;20476;-67
2024/01/01 01:27:42;;;;;;;8.88;3.17;;;;;;;6.41;100.00;97987.31;4995403;28;20057;-67
2024/01/01 01:30:10;;;;;;;8.40;2.90;;;;;;;6.41;100.00;97993.34;5011643;28;20054;-67
2024/01/01 01:32:37;;;;;;;7.60;2.95;;;;;;;6.43;100.00;97991.47;4979774;28;20472;-67
2024/01/01 01:35:05;;;;;;;6.63;2.53;;;;;;;6.33;100.00;97986.97;5017422;28;20493;-67
2024/01/01 01:37:32;;;;;;;6.78;3.13;;;;;;;6.30;100.00;97993.19;5013353;28;20092;-67
2024/01/01 01:39:59;;;;;;;9.30;2.75;;;;;;;6.30;100.00;97990.59;5018025;28;20049;-67
2024/01/01 01:42:26;;;;;;;6.80;2.50;;;;;;;6.24;100.00;97984.03;5000800;28;20065;-67
2024/01/01 01:44:53;;;;;;;9.10;3.10;;;;;;;6.26;100.00;97989.94;5025576;28;20049;-67
2024/01/01 01:47:19;;;;;;;8.27;3.00;;;;;;;6.26;100.00;98000.34;5011626;28;20054;-67
2024/01/01 01:49:47;;;;;;;7.55;2.78;;;;;;;6.19;100.00;97987.84;5014815;28;20408;-67
2024/01/01 01:52:14;;;;;;;7.60;3.15;;;;;;;6.16;100.00;97995.84;5021567;28;20049;-67
2024/01/01 01:54:45;;;;;;;8.43;2.80;;;;;;;6.11;100.00;97997.88;5031799;28;20049;-67
2024/01/01 01:57:16;;;;;;;8.85;2.95;;;;;;;6.13;100.00;98007.28;5024849;28;20045;-67
2024/01/01 01:59:43;;;;;;;9.70;3.28;;;;;;;6.08;100.00;98012.75;5018928;28;20050;-67
2024/01/01 02:02:11;;;;;;;8.52;3.38;;;;;;;6.07;100.00;98018.03;5004012;28;20488;-67
2024/01/01 02:04:38;;;;;;;8.00;2.80;;;;;;;6.04;100.00;98008.69;5005820;28;20385;-67
2024/01/01 02:07:06;;;;;;;6.68;2.78;;;;;;;6.00;100.00;98008.94;5020049;28;20498;-67
2024/01/01 02:09:32;;;;;;;7.90;2.70;;;;;;;6.01;100.00;98023.63;5020528;28;20404;-67
2024/01/01 02:11:59;;;;;;;6.65;2.53;;;;;;;5.94;100.00;98020.53;5014097;28;20046;-67
2024/01/01 02:14:26;;;;;;;8.70;2.72;;;;;;;5.94;100.00;98022.31;5002492;28;20068;-67
2024/01/01 02:16:53;;;;;;;7.97;2.72;;;;;;;5.98;100.00;98029.00;5019941;28;20049;-67
2024/01/01 02:19:28;;;;;;;5.50;2.33;;;;;;;5.93;100.00;98037.03;5011832;28;20145;-67
2024/01/01 02:21:56;;;;;;;8.60;3.60;;;;;;;5.79;100.00;98047.44;5005497;28;20053;-67
2024/01/01 02:24:23;;;;;;;8.77;3.15;;;;;;;5.73;100.00;98048.66;5031991;28;20053;-67
2024/01/01 02:26:50;;;;;;;9.05;3.50;;;;;;;5.72;100.00;98054.78;5028732;28;20049;-67
2024/01/01 02:29:17;;;;;;;12.02;4.78;;;;;;;5.69;100.00;98053.19;5015060;28;20064;-67
2024/01/01 02:31:45;;;;;;;11.15;5.30;;;;;;;5.65;100.00;98053.47;5011528;28;20381;-67
2024/01/01 02:34:12;;;;;;;11.52;5.18;;;;;;;5.56;100.00;98062.66;4998362;28;20149;-67
2024/01/01 02:36:40;;;;;;;11.80;5.22;;;;;;;5.75;100.00;98083.13;5031771;28;20072;-68
2024/01/01 02:39:07;;;;;;;12.02;5.90;;;;;;;5.68;100.00;98069.72;5005790;28;20065;-68
2024/01/01 02:41:35;;;;;;;11.25;5.57;;;;;;;5.56;100.00;98057.47;5015273;28;20519;-68
2024/01/01 02:44:03;;;;;;;10.60;5.15;;;;;;;5.62;100.00;98085.63;5008240;28;20129;-68
2024/01/01 02:46:29;;;;;;;11.75;5.55;;;;;;;5.71;100.00;98092.03;5005383;28;20058;-68
2024/01/01 02:48:56;;;;;;;11.00;5.15;;;;;;;5.71;100.00;98092.03;5006821;28;20050;-68
2024/01/01 02:51:23;;;;;;;10.05;3.90;;;;;;;5.73;100.00;98097.97;4999314;28;20050;-68
2024/01/01 02:53:50;;;;;;;12.50;4.90;;;;;;;5.76;100.00;98099.56;5007639;28;20450;-68
2024/01/01 02:56:17;;;;;;;11.75;5.45;;;;;;;5.78;100.00;98105.50;5014071;28;20056;-68
2024/01/01 02:58:45;;;;;;;10.65;4.65;;;;;;;5.83;100.00;98101.69;5010015;28;20431;-66
2024/01/01 03:01:12;;;;;;;10.80;4.40;;;;;;;5.81;100.00;98107.91;5009668;28;20148;-67
2024/01/01 03:03:39;;;;;;;9.68;4.15;;;;;;;5.82;100.00;98104.38;5010271;28;20107;-67
2024/01/01 03:06:08;;;;;;;10.50;4.22;;;;;;;5.70;100.00;98101.59;5010482;28;20054;-67
2024/01/01 03:08:37;;;;;;;10.70;4.00;;;;;;;5.65;100.00;98108.81;5009697;28;20046;-67
2024/01/01 03:11:07;;;;;;;9.93;4.05;;;;;;;5.75;100.00;98114.28;5009668;28;20384;-66
2024/01/01 03:13:34;;;;;;;9.35;3.83;;;;;;;5.80;100.00;98119.22;5007447;28;20077;-67
2024/01/01 03:16:02;;;;;;;11.55;5.38;;;;;;;5.65;100.00;98119.22;5006597;28;20064;-67
2024/01/01 03:18:29;;;;;;;12.43;5.85;;;;;;;5.49;100.00;98118.44;5007834;28;20058;-67
2024/01/01 03:20:56;;;;;;;10.38;4.30;;;;;;;5.42;100.00;98120.56;4988973;28;20069;-67
2024/01/01 03:23:22;;;;;;;11.48;4.20;;;;;;;5.46;100.00;98118.63;5010463;28;20076;-67
2024/01/01 03:25:49;;;;;;;9.73;4.22;;;;;;;5.39;100.00;98125.09;5009786;28;20064;-67
2024/01/01 03:28:16;;;;;;;8.40;3.42;;;;;;;5.46;100.00;98131.59;5009197;28;20056;-67
2024/01/01 03:30:43;;;;;;;9.15;3.50;;;;;;;5.61;100.00;98133.31;4990965;28;20058;-67
2024/01/01 03:33:10;;;;;;;8.68;3.70;;;;;;;5.40;100.00;98099.06;5010493;28;20049;-67
2024/01/01 03:35:37;;;;;;;10.15;3.63;;;;;;;5.59;100.00;98122.16;5001083;28;20084;-67
2024/01/01 03:38:04;;;;;;;9.13;3.60;;;;;;;5.59;100.00;98129.94;5012567;28;20539;-67
2024/01/01 03:40:32;;;;;;;9.02;3.60;;;;;;;5.57;100.00;98120.59;4997713;28;20085;-67
2024/01/01 03:43:00;;;;;;;8.90;3.85;;;;;;;5.55;100.00;98136.25;5010530;28;20056;-67
2024/01/01 03:45:27;;;;;;;7.35;3.55;;;;;;;5.50;100.00;98138.28;5020469;28;20056;-67
2024/01/01 03:47:54;;;;;;;9.60;4.15;;;;;;;5.42;100.00;98130.09;5020597;28;20056;-68
2024/01/01 03:50:21;;;;;;;9.02;3.40;;;;;;;5.45;100.00;98135.09;5013577;28;20402;-67
2024/01/01 03:52:48;;;;;;;8.18;3.38;;;;;;;5.47;100.00;98138.44;5015078;28;20045;-68
2024/01/01 03:55:15;;;;;;;10.02;3.75;;;;;;;5.32;100.00;98138.41;5017091;28;20081;-68
2024/01/01 03:57:43;;;;;;;9.88;3.63;;;;;;;5.38;100.00;98147.59;5014018;28;20045;-68
2024/01/01 04:00:11;;;;;;;6.97;3.00;;;;;;;5.33;100.00;98144.47;5019072;28;20059;-67
2024/01/01 04:02:40;;;;;;;8.65;3.60;;;;;;;5.24;100.00;98142.38;5009663;28;20077;-67
2024/01/01 04:05:08;;;;;;;7.82;3.13;;;;;;;5.32;100.00;98150.56;5017372;28;20042;-67
2024/01/01 04:07:36;;;;;;;7.63;3.30;;;;;;;5.33;100.00;98144.47;4990936;28;20061;-67
2024/01/01 04:10:05;;;;;;;7.72;3.10;;;;;;;5.41;100.00;98156.97;4997352;28;20046;-67
2024/01/01 04:12:32;;;;;;;7.35;3.20;;;;;;;5.39;100.00;98156.22;5007396;28;20516;-67
2024/01/01 04:14:59;;;;;;;8.45;3.13;;;;;;;5.29;100.00;98161.09;5002247;28;20074;-68
2024/01/01 04:17:26;;;;;;;8.73;3.20;;;;;;;5.20;100.00;98164.22;4990111;28;20054;-67
2024/01/01 04:19:53;;;;;;;7.93;3.42;;;;;;;5.17;100.00;98165.25;5008052;28;20403;-67
2024/01/01 04:22:20;;;;;;;7.85;3.22;;;;;;;5.25;100.00;98170.81;5011400;28;20475;-68
2024/01/01 04:24:52;;;;;;;9.40;3.38;;;;;;;5.21;100.00;98168.50;4999055;28;20061;-68
2024/01/01 04:27:19;;;;;;;8.50;3.45;;;;;;;5.23;100.00;98177.03;5000568;28;20531;-68
2024/01/01 04:29:46;;;;;;;6.47;3.00;;;;;;;5.28;100.00;98177.63;5007254;28;20434;-68
2024/01/01 04:32:12;;;;;;;8.13;3.13;;;;;;;5.27;100.00;98174.16;5011016;28;20045;-68
2024/01/01 04:34:39;;;;;;;9.52;3.53;;;;;;;5.21;100.00;98176.28;5009316;28;20054;-68
2024/01/01 04:37:06;;;;;;;7.28;2.80;;;;;;;5.25;100.00;98185.56;5022793;28;20064;-68
2024/01/01 04:39:33;;;;;;;8.80;2.92;;;;;;;5.29;100.00;98187.91;5009569;28;20050;-68
2024/01/01 04:41:59;;;;;;;8.68;3.05;;;;;;;5.24;100.00;98192.50;5009432;28;20053;-68
2024/01/01 04:44:26;;;;;;;7.80;3.08;;;;;;;5.30;100.00;98204.31;5003818;28;20488;-68
2024/01/01 04:46:53;;;;;;;6.88;2.70;;;;;;;5.25;100.00;98196.75;5020326;28;20060;-67
2024/01/01 04:49:19;;;;;;;6.95;2.60;;;;;;;5.27;100.00;98202.69;5028080;28;20056;-68
2024/01/01 04:51:46;;;;;;;8.50;3.00;;;;;;;5.17;100.00;98203.31;5016660;28;20045;-67
2024/01/01 04:54:13;;;;;;;9.05;2.80;;;;;;;5.05;100.00;98200.47;5028002;28;20056;-67
2024/01/01 04:56:39;;;;;;;7.05;2.85;;;;;;;4.90;100.00;98202.16;5014071;28;20058;-67
2024/01/01 04:59:06;;;;;;;6.57;2.88;;;;;;;4.91;100.00;98208.19;5009089;28;20057;-67
2024/01/01 05:01:33;;;;;;;7.78;2.88;;;;;;;4.72;100.00;98211.75;5018598;28;20499;-67
2024/01/01 05:04:00;;;;;;;7.18;2.85;;;;;;;4.61;100.00;98216.69;5013687;28;20162;-67
2024/01/01 05:06:27;;;;;;;7.40;2.92;;;;;;;4.66;100.00;98213.88;5021040;28;20053;-68
2024/01/01 05:08:54;;;;;;;7.53;2.92;;;;;;;4.60;100.00;98209.84;5023994;28;20049;-67
2024/01/01 05:11:21;;;;;;;8.32;3.00;;;;;;;4.64;100.00;98218.28;5011869;28;20050;-67
2024/01/01 05:13:48;;;;;;;6.55;2.55;;;;;;;4.54;100.00;98221.38;5007475;28;20093;-67
2024/01/01 05:16:15;;;;;;;8.40;3.20;;;;;;;4.41;100.00;98220.34;5002900;28;20101;-67
2024/01/01 05:18:41;;;;;;;7.35;3.13;;;;;;;4.38;100.00;98221.34;5009273;28;20054;-67
2024/01/01 05:21:08;;;;;;;9.07;3.00;;;;;;;4.33;100.00;98212.13;5021206;28;20136;-68
2024/01/01 05:23:35;;;;;;;6.90;2.65;;;;;;;4.31;100.00;98221.75;5019523;28;20132;-68
2024/01/01 05:26:03;;;;;;;6.55;2.28;;;;;;;4.28;100.00;98217.53;5027495;28;20053;-68
2024/01/01 05:28:30;;;;;;;6.43;2.45;;;;;;;4.37;100.00;98226.59;5019087;28;20681;-68
2024/01/01 05:30:56;;;;;;;7.72;2.40;;;;;;;4.25;100.00;98216.88;5007956;28;20053;-68
2024/01/01 05:33:23;;;;;;;5.95;2.20;;;;;;;4.26;100.00;98234.09;5023506;28;20402;-68
2024/01/01 05:35:50;;;;;;;7.88;2.67;;;;;;;4.24;100.00;98239.34;5032194;28;20061;-68
2024/01/01 05:38:17;;;;;;;5.60;2.03;;;;;;;4.22;100.00;98240.38;5018697;28;20076;-68
2024/01/01 05:40:45;;;;;;;7.82;2.70;;;;;;;4.22;100.00;98248.97;5007091;28;20136;-68
2024/01/01 05:43:14;;;;;;;5.72;2.20;;;;;;;4.10;100.00;98250.41;5014913;28;20104;-68
2024/01/01 05:45:40;;;;;;;6.55;2.28;;;;;;;4.05;100.00;98257.56;5019590;28;20507;-68
2024/01/01 05:48:07;;;;;;;7.70;2.15;;;;;;;4.02;100.00;98252.56;4988294;28;20049;-69
2024/01/01 05:50:51;;;;;;;5.10;2.15;;;;;;;4.09;100.00;98260.84;5007146;28;20475;-68
2024/01/01 05:53:17;;;;;;;6.20;2.30;;;;;;;4.03;100.00;98256.81;5032440;28;20060;-68
2024/01/01 05:55:44;;;;;;;4.68;1.95;;;;;;;4.07;100.00;98258.38;5031466;28;20495;-67
2024/01/01 05:58:12;;;;;;;4.25;1.67;;;;;;;3.97;100.00;98246.78;5020530;28;20084;-68
2024/01/01 06:00:39;;;;;;;3.85;1.90;;;;;;;3.89;100.00;98239.38;5009189;28;20514;-68
2024/01/01 06:03:06;;;;;;;5.95;2.15;;;;;;;3.94;100.00;98257.28;5015522;28;20038;-68
2024/01/01 06:05:36;;;;;;;5.95;2.38;;;;;;;3.88;100.00;98260.19;4998059;28;20077;-67
2024/01/01 06:08:03;;;;;;;6.43;2.67;;;;;;;3.84;100.00;98263.84;5011838;28;20049;-68
2024/01/01 06:10:31;;;;;;;5.65;2.10;;;;;;;3.86;100.00;98269.78;5012369;28;20100;-68
2024/01/01 06:12:58;;;;;;;6.07;1.88;;;;;;;3.82;100.00;98279.44;5031980;28;20049;-68
2024/01/01 06:15:27;;;;;;;6.25;1.90;;;;;;;3.73;100.00;98267.78;5000620;28;20050;-68
2024/01/01 06:17:53;;;;;;;7.00;2.10;;;;;;;3.72;100.00;98283.38;5031391;28;20399;-68
2024/01/01 06:20:20;;;;;;;4.10;1.70;;;;;;;3.66;100.00;98287.13;5021138;28;20058;-68
2024/01/01 06:22:47;;;;;;;5.40;2.25;;;;;;;3.60;100.00;98283.09;5013358;28;20037;-68
2024/01/01 06:25:14;;;;;;;5.07;1.80;;;;;;;3.64;100.00;98294.13;5011008;28;20085;-68
2024/01/01 06:27:41;;;;;;;5.40;2.40;;;;;;;3.54;100.00;98283.41;5020320;28;20484;-68
2024/01/01 06:30:08;;;;;;;5.65;2.30;;;;;;;3.52;100.00;98295.53;5010466;28;20057;-67
2024/01/01 06:32:34;;;;;;;4.65;1.92;;;;;;;3.46;100.00;98295.84;5020004;28;20077;-68
2024/01/01 06:35:01;;;;;;;6.25;2.05;;;;;;;3.49;100.00;98308.66;5025159;28;20049;-68
2024/01/01 06:37:28;;;;;;;5.25;2.00;;;;;;;3.53;100.00;98309.34;5011867;28;20140;-68
2024/01/01 06:39:55;;;;;;;4.07;1.80;;;;;;;3.46;100.00;98300.19;5026630;28;20049;-68
2024/01/01 06:42:21;;;;;;;4.43;1.95;;;;;;;3.52;100.00;98315.41;4998223;28;20045;-67
2024/01/01 06:44:48;;;;;;;5.78;2.88;;;;;;;3.33;100.00;98290.44;5009516;28;20049;-68
2024/01/01 06:47:15;;;;;;;5.28;2.15;;;;;;;3.31;100.00;98299.16;5012334;28;20049;-68
2024/01/01 06:49:41;;;;;;;4.35;1.88;;;;;;;3.34;100.00;98319.69;5023034;28;20111;-68
2024/01/01 06:52:08;;;;;;;4.78;2.15;;;;;;;3.34;100.00;98320.53;5012696;28;20052;-68
2024/01/01 06:54:38;;;;;;;6.93;2.10;;;;;;;3.38;100.00;98332.44;5001658;28;20396;-68
2024/01/01 06:57:04;;;;;;;4.43;1.70;;;;;;;3.20;100.00;98300.47;5023633;28;20523;-67
2024/01/01 06:59:31;;;;;;;5.22;2.20;;;;;;;3.33;100.00;98331.81;5000747;28;20058;-68
2024/01/01 07:01:58;;;;;;;4.32;1.98;;;;;;;3.29;100.00;98340.59;5022967;28;20485;-68
2024/01/01 07:04:25;;;;;;;4.72;1.83;;;;;;;3.32;100.00;98347.41;5014623;28;20089;-68
2024/01/01 07:06:52;;;;;;;5.57;1.83;;;;;;;3.32;100.00;98349.97;5010172;28;20060;-68
2024/01/01 07:09:19;;;;;;;5.47;2.00;;;;;;;3.27;100.00;98351.94;4991315;28;20057;-69
2024/01/01 07:11:46;;;;;;;5.72;2.20;;;;;;;3.17;100.00;98351.50;5000802;28;20060;-67
2024/01/01 07:14:13;;;;;;;4.00;1.70;;;;;;;3.10;100.00;98358.72;5017873;28;20491;-67
2024/01/01 07:16:40;;;;;;;3.47;1.60;;;;;;;2.96;100.00;98364.50;5000127;28;20058;-67
2024/01/01 07:19:07;;;;;;;5.15;2.00;;;;;;;2.91;100.00;98357.88;5013250;28;20561;-66
2024/01/01 07:21:34;;;;;;;4.32;1.80;;;;;;;2.96;100.00;98368.84;5018664;28;20096;-67
2024/01/01 07:24:00;;;;;;;7.80;2.50;;;;;;;2.81;100.00;98380.69;5012732;28;20057;-67
2024/01/01 07:26:27;;;;;;;5.28;2.13;;;;;;;2.75;100.00;98374.03;4997173;28;20050;-67
2024/01/01 07:28:54;;;;;;;5.05;2.05;;;;;;;2.76;100.00;98391.22;5008897;28;20049;-67
2024/01/01 07:31:21;;;;;;;6.05;2.22;;;;;;;2.89;100.00;98396.69;4992052;28;20487;-67
2024/01/01 07:33:49;;;;;;;6.35;2.15;;;;;;;2.95;100.00;98404.16;5016686;28;20045;-67
2024/01/01 07:36:15;;;;;;;4.25;1.75;;;;;;;2.86;100.00;98404.56;5030218;28;20053;-68
2024/01/01 07:38:42;;;;;;;6.28;2.33;;;;;;;2.95;100.00;98413.69;5011156;28;20523;-67
2024/01/01 07:41:09;;;;;;;5.28;1.92;;;;;;;2.87;100.00;98414.03;5009883;28;20148;-68
2024/01/01 07:43:37;;;;;;;10.43;2.10;;;;;;;2.97;100.00;98425.63;5009948;28;20050;-67
2024/01/01 07:46:04;;;;;;;7.78;2.55;;;;;;;2.99;100.00;98430.72;5019287;28;20062;-68
2024/01/01 07:48:30;;;;;;;7.00;2.30;;;;;;;3.04;100.00;98446.88;5016293;28;20084;-68
2024/01/01 07:50:59;;;;;;;8.52;2.53;;;;;;;3.01;100.00;98444.41;5021277;28;20058;-67
2024/01/01 07:53:26;;;;;;;6.93;2.17;;;;;;;2.71;100.00;98402.66;5023963;28;20045;-67
2024/01/01 07:55:52;;;;;;;5.75;1.70;;;;;;;2.97;100.00;98450.63;4999765;28;20480;-68
2024/01/01 07:58:19;;;;;;;3.60;1.58;;;;;;;3.01;100.00;98447.88;5006303;28;20108;-68
2024/01/01 08:00:47;;;;;;;4.63;1.90;;;;;;;3.02;100.00;98466.78;5008134;28;20054;-67
2024/01/01 08:03:13;;;;;;;7.75;2.10;;;;;;;2.95;100.00;98450.69;5009648;28;20069;-68
2024/01/01 08:05:40;;;;;;;5.80;2.10;;;;;;;2.90;100.00;98454.41;5006748;28;20092;-68
2024/01/01 08:08:08;;;;;;;6.10;2.40;;;;;;;2.90;100.00;98473.31;5006782;28;20387;-67
2024/01/01 08:10:35;;;;;;;4.88;1.90;;;;;;;2.85;100.00;98465.78;5006409;28;20137;-68
2024/01/01 08:13:02;;;;;;;6.07;2.35;;;;;;;2.87;100.00;98480.38;5010485;28;20053;-68
2024/01/01 08:15:29;;;;;;;5.53;1.88;;;;;;;2.73;100.00;98471.47;5006760;28;20416;-68
2024/01/01 08:17:56;;;;;;;4.90;1.85;;;;;;;2.70;100.00;98479.34;5004390;28;20133;-68
2024/01/01 08:20:23;;;;;;;4.97;1.75;;;;;;;2.75;100.00;98489.50;5000219;28;20373;-68
2024/01/01 08:22:49;;;;;;;4.82;1.80;;;;;;;2.80;100.00;98497.91;5017842;28;20620;-68
2024/01/01 08:25:17;;;;;;;5.40;1.85;;;;;;;2.77;100.00;98485.94;5006596;28;20456;-67
2024/01/01 08:27:44;;;;;;;4.32;1.77;;;;;;;2.73;100.00;98502.47;5003737;28;20042;-69
2024/01/01 08:30:11;;;;;;;6.07;2.40;;;;;;;2.72;100.00;98499.94;4990779;28;20475;-68
2024/01/01 08:32:38;;;;;;;4.25;1.70;;;;;;;2.74;100.00;98498.13;5018785;28;20054;-68
2024/01/01 08:35:05;;;;;;;4.93;1.55;;;;;;;2.75;100.00;98500.66;5011744;28;20041;-68
2024/01/01 08:37:31;;;;;;;3.97;1.70;;;;;;;2.86;100.00;98510.56;5020795;28;20053;-68
2024/01/01 08:39:58;;;;;;;4.50;2.03;;;;;;;2.87;100.00;98512.25;5012884;28;20480;-68
2024/01/01 08:42:25;;;;;;;5.68;1.80;;;;;;;2.81;100.00;98515.06;5016957;28;20049;-68
2024/01/01 08:44:52;;;;;;;3.33;1.70;;;;;;;2.79;100.00;98520.28;5015384;28;20487;-68
2024/01/01 08:47:19;;;;;;;4.88;1.58;;;;;;;2.81;100.00;98517.66;5009016;28;20515;-68
2024/01/01 08:49:46;;;;;;;3.83;1.65;;;;;;;2.78;100.00;98517.78;5009413;28;20518;-68
2024/01/01 08:52:12;;;;;;;7.18;2.08;;;;;;;2.76;100.00;98520.44;5014928;28;20165;-68
2024/01/01 08:54:39;;;;;;;6.43;2.00;;;;;;;2.76;100.00;98519.59;5009058;28;20058;-68
2024/01/01 08:57:05;;;;;;;7.93;2.20;;;;;;;2.66;100.00;98514.81;5022028;28;20069;-68
2024/01/01 08:59:32;;;;;;;5.55;1.70;;;;;;;2.62;100.00;98517.56;5019897;28;20065;-68
2024/01/01 09:01:59;;;;;;;4.03;1.48;;;;;;;2.49;100.00;98486.22;5001005;28;20061;-68
2024/01/01 09:04:25;;;;;;;4.70;1.90;;;;;;;2.66;100.00;98511.38;5004871;28;20145;-68
2024/01/01 09:06:52;;;;;;;5.78;1.80;;;;;;;2.64;100.00;98513.19;4986680;28;20484;-68
2024/01/01 09:09:19;;;;;;;5.20;1.80;;;;;;;2.50;100.00;98497.38;5007374;28;20073;-68
2024/01/01 09:11:47;;;;;;;3.85;1.60;;;;;;;2.66;100.00;98521.72;5001070;28;20050;-68
2024/01/01 09:14:14;;;;;;;7.93;2.47;;;;;;;2.62;100.00;98526.16;5007738;28;20125;-68
2024/01/01 09:16:40;;;;;;;5.30;1.85;;;;;;;2.54;100.00;98533.38;5012482;28;20054;-68
2024/01/01 09:19:07;;;;;;;5.25;2.00;;;;;;;2.44;100.00;98527.75;5013441;28;20050;-68
2024/01/01 09:21:34;;;;;;;7.45;2.50;;;;;;;2.42;100.00;98526.13;5014516;28;20081;-67
2024/01/01 09:24:01;;;;;;;5.70;2.75;;;;;;;2.47;100.00;98530.19;5006430;28;20381;-67
2024/01/01 09:26:29;;;;;;;5.95;2.08;;;;;;;2.45;100.00;98550.09;4999503;28;20054;-67
2024/01/01 09:28:56;;;;;;;4.78;1.90;;;;;;;2.56;100.00;98560.00;5008078;28;20050;-67
2024/01/01 09:31:23;;;;;;;5.40;2.15;;;;;;;2.57;100.00;98560.84;5009929;28;20148;-67
2024/01/01 09:33:50;;;;;;;5.20;1.95;;;;;;;2.54;100.00;98572.13;5009175;28;20069;-67
2024/01/01 09:36:17;;;;;;;4.25;1.92;;;;;;;2.55;100.00;98562.63;5007816;28;20062;-67
2024/01/01 09:38:43;;;;;;;4.43;1.80;;;;;;;2.68;100.00;98570.75;4997918;28;20492;-68
2024/01/01 09:41:11;;;;;;;4.47;2.10;;;;;;;2.66;100.00;98579.41;5006492;28;20061;-68
2024/01/01 09:43:42;;;;;;;3.80;1.88;;;;;;;2.66;100.00;98586.31;5007065;28;20516;-69
2024/01/01 09:46:10;;;;;;;6.00;2.00;;;;;;;2.67;100.00;98582.81;4991789;28;20046;-67
2024/01/01 09:48:37;;;;;;;6.32;2.10;;;;;;;2.79;100.00;98584.06;4998776;28;20462;-67
2024/01/01 09:51:05;;;;;;;5.78;2.20;;;;;;;2.88;100.00;98591.44;5014722;28;20088;-67
2024/01/01 09:53:31;;;;;;;9.18;2.42;;;;;;;2.79;100.00;98590.06;4992957;28;20049;-67
2024/01/01 09:55:58;;;;;;;7.65;1.88;;;;;;;2.69;100.00;98591.34;5005065;28;20050;-68
2024/01/01 09:58:25;;;;;;;7.60;2.13;;;;;;;2.82;100.00;98595.13;5003266;28;20160;-68
2024/01/01 10:00:51;;;;;;;6.30;2.40;;;;;;;2.86;100.00;98601.00;5007077;28;20045;-68
2024/01/01 10:03:18;;;;;;;9.95;2.50;;;;;;;2.88;100.00;98598.38;5006970;28;20056;-68
2024/01/01 10:05:48;;;;;;;4.93;1.90;;;;;;;2.93;100.00;98605.03;5006340;28;20522;-68
2024/01/01 10:08:16;;;;;;;6.82;2.10;;;;;;;3.07;100.00;98599.31;5000279;28;20116;-68
2024/01/01 10:10:43;;;;;;;5.53;2.00;;;;;;;3.21;100.00;98612.50;5011569;28;20085;-68
2024/01/01 10:13:13;;;;;;;7.13;1.90;;;;;;;3.20;100.00;98602.22;5003079;28;20046;-68
2024/01/01 10:15:42;;;;;;;5.20;1.83;;;;;;;3.34;100.00;98623.16;5011341;28;20494;-68
2024/01/01 10:18:14;;;;;;;4.80;1.92;;;;;;;3.40;100.00;98633.28;5000623;28;20099;-68
2024/01/01 10:20:43;;;;;;;5.70;1.90;;;;;;;3.37;100.00;98633.41;5009459;28;20058;-68
2024/01/01 10:23:23;;;;;;;4.38;1.70;;;;;;;3.52;100.00;98634.50;5009994;28;20046;-68
2024/01/01 10:26:22;;;;;;;5.57;2.15;;;;;;;3.64;100.00;98629.72;5009482;28;20053;-68
2024/01/01 10:28:49;;;;;;;3.35;1.55;;;;;;;3.64;100.00;98635.72;4943872;28;20050;-68
2024/01/01 10:31:16;;;;;;;5.93;2.00;;;;;;;3.47;100.00;98628.69;5008212;28;20053;-68
2024/01/01 10:33:47;;;;;;;4.80;1.90;;;;;;;3.52;100.00;98634.50;5024484;28;20045;-68
2024/01/01 10:36:16;;;;;;;7.18;2.50;;;;;;;3.50;100.00;98645.81;5008201;28;20046;-68
2024/01/01 10:38:44;;;;;;;6.00;2.13;;;;;;;3.51;100.00;98652.69;5005638;28;20100;-68
2024/01/01 10:41:11;;;;;;;5.43;1.70;;;;;;;3.60;100.00;98658.31;5010681;28;20049;-70
2024/01/01 10:43:40;;;;;;;5.70;2.20;;;;;;;3.68;100.00;98657.97;5006559;28;20050;-67
2024/01/01 10:46:08;;;;;;;5.32;1.95;;;;;;;3.79;100.00;98652.34;4997506;28;20480;-67
2024/01/01 10:48:35;;;;;;;6.40;1.90;;;;;;;3.80;100.00;98657.44;4995031;28;20051;-67
2024/01/01 10:51:33;;;;;;;6.72;2.08;;;;;;;3.95;100.00;98665.47;5008717;28;20046;-68
2024/01/01 10:54:09;;;;;;;8.27;2.25;;;;;;;3.94;100.00;98666.38;4989829;28;20444;-68
2024/01/01 10:56:39;;;;;;;5.32;1.98;;;;;;;3.96;100.00;98669.72;5000548;28;20053;-68
2024/01/01 10:59:18;;;;;;;5.43;1.85;;;;;;;3.98;100.00;98658.41;5006115;28;20627;-66
2024/01/01 11:01:47;;;;;;;5.95;2.25;;;;;;;4.02;100.00;98666.91;5010118;28;20054;-68
2024/01/01 11:04:15;;;;;;;7.15;2.00;;;;;;;3.96;100.00;98665.38;5009290;28;20273;-68
2024/01/01 11:06:43;;;;;;;6.90;2.60;;;;;;;3.84;100.00;98652.97;5009297;28;20065;-67
2024/01/01 11:09:18;;;;;;;8.25;2.50;;;;;;;4.01;100.00;98669.53;5010704;28;20057;-68
2024/01/01 11:11:52;;;;;;;6.53;2.85;;;;;;;3.95;100.00;98673.25;5004739;28;20088;-68
2024/01/01 11:14:30;;;;;;;9.57;3.22;;;;;;;3.93;100.00;98670.72;4995993;28;20058;-68
2024/01/01 11:17:01;;;;;;;9.45;3.08;;;;;;;4.01;100.00;98670.38;4991931;28;20050;-67
2024/01/01 11:19:42;;;;;;;7.78;2.63;;;;;;;4.04;100.00;98679.75;5009385;28;20046;-67
2024/01/01 11:22:31;;;;;;;8.23;3.40;;;;;;;4.06;100.00;98667.59;5004313;28;20491;-68
2024/01/01 11:25:00;;;;;;;7.95;3.25;;;;;;;4.19;100.00;98666.13;5003616;28;20049;-68
2024/01/01 11:27:31;;;;;;;7.60;2.47;;;;;;;4.24;100.00;98671.13;5008143;28;20085;-70
2024/01/01 11:30:06;;;;;;;7.07;2.35;;;;;;;4.32;100.00;98676.78;4997111;28;20046;-69
2024/01/01 11:32:35;;;;;;;6.68;2.17;;;;;;;4.38;100.00;98684.28;5006201;28;20085;-69
2024/01/01 11:35:03;;;;;;;11.13;3.20;;;;;;;4.24;100.00;98691.84;5001036;28;20714;-69